sensor_id;sensor_type;location;lat;lon;timestamp;P1;durP1;ratioP1;P2;durP2;ratioP2
76807;SDS011;65758;45.458;11.062;2023-08-17T00:01:58;9.60;;;8.40;;
76807;SDS011;65758;45.458;11.062;2023-08-17T00:04:25;13.30;;;8.90;;
76807;SDS011;65758;45.458;11.062;2023-08-17T00:06:52;9.50;;;8.50;;
76807;SDS011;65758;45.458;11.062;2023-08-17T00:09:19;9.70;;;8.30;;
76807;SDS011;65758;45.458;11.062;2023-08-17T00:11:45;9.60;;;8.60;;
76807;SDS011;65758;45.458;11.062;2023-08-17T00:14:12;12.10;;;8.50;;
76807;SDS011;65758;45.458;11.062;2023-08-17T00:16:39;7.50;;;6.80;;
76807;SDS011;65758;45.458;11.062;2023-08-17T00:19:08;9.40;;;8.10;;
76807;SDS011;65758;45.458;11.062;2023-08-17T00:21:34;9.90;;;8.90;;
76807;SDS011;65758;45.458;11.062;2023-08-17T00:24:02;9.70;;;8.40;;
76807;SDS011;65758;45.458;11.062;2023-08-17T00:26:29;8.90;;;8.10;;
76807;SDS011;65758;45.458;11.062;2023-08-17T00:28:56;8.70;;;8.00;;
76807;SDS011;65758;45.458;11.062;2023-08-17T00:31:23;10.40;;;9.20;;
76807;SDS011;65758;45.458;11.062;2023-08-17T00:33:50;9.70;;;8.90;;
76807;SDS011;65758;45.458;11.062;2023-08-17T00:36:16;11.90;;;9.30;;
76807;SDS011;65758;45.458;11.062;2023-08-17T00:38:43;10.60;;;9.50;;
76807;SDS011;65758;45.458;11.062;2023-08-17T00:41:10;12.30;;;10.80;;
76807;SDS011;65758;45.458;11.062;2023-08-17T00:43:37;13.00;;;10.40;;
76807;SDS011;65758;45.458;11.062;2023-08-17T00:46:04;11.30;;;10.20;;
76807;SDS011;65758;45.458;11.062;2023-08-17T00:48:33;10.70;;;9.50;;
76807;SDS011;65758;45.458;11.062;2023-08-17T00:51:00;12.80;;;10.80;;
76807;SDS011;65758;45.458;11.062;2023-08-17T00:53:29;12.70;;;11.40;;
76807;SDS011;65758;45.458;11.062;2023-08-17T00:55:59;12.50;;;11.20;;
76807;SDS011;65758;45.458;11.062;2023-08-17T00:58:29;12.80;;;11.60;;
76807;SDS011;65758;45.458;11.062;2023-08-17T01:00:55;13.20;;;11.30;;
76807;SDS011;65758;45.458;11.062;2023-08-17T01:03:23;13.40;;;11.20;;
76807;SDS011;65758;45.458;11.062;2023-08-17T01:05:51;13.30;;;12.00;;
76807;SDS011;65758;45.458;11.062;2023-08-17T01:08:17;12.70;;;10.60;;
76807;SDS011;65758;45.458;11.062;2023-08-17T01:10:51;10.40;;;9.40;;
76807;SDS011;65758;45.458;11.062;2023-08-17T01:13:31;11.30;;;10.20;;
76807;SDS011;65758;45.458;11.062;2023-08-17T01:16:05;13.30;;;10.30;;
76807;SDS011;65758;45.458;11.062;2023-08-17T01:18:36;12.10;;;9.80;;
76807;SDS011;65758;45.458;11.062;2023-08-17T01:21:06;13.40;;;10.40;;
76807;SDS011;65758;45.458;11.062;2023-08-17T01:23:36;12.10;;;9.50;;
76807;SDS011;65758;45.458;11.062;2023-08-17T01:26:03;15.80;;;9.60;;
76807;SDS011;65758;45.458;11.062;2023-08-17T01:28:30;10.90;;;9.80;;
76807;SDS011;65758;45.458;11.062;2023-08-17T01:31:08;11.00;;;9.90;;
76807;SDS011;65758;45.458;11.062;2023-08-17T01:33:42;15.10;;;10.60;;
76807;SDS011;65758;45.458;11.062;2023-08-17T01:36:19;11.70;;;10.30;;
76807;SDS011;65758;45.458;11.062;2023-08-17T01:38:51;11.10;;;9.80;;
76807;SDS011;65758;45.458;11.062;2023-08-17T01:41:22;12.50;;;10.00;;
76807;SDS011;65758;45.458;11.062;2023-08-17T01:43:51;12.40;;;10.20;;
76807;SDS011;65758;45.458;11.062;2023-08-17T01:46:20;11.00;;;9.50;;
76807;SDS011;65758;45.458;11.062;2023-08-17T01:48:47;12.80;;;9.20;;
76807;SDS011;65758;45.458;11.062;2023-08-17T01:51:18;12.00;;;9.90;;
76807;SDS011;65758;45.458;11.062;2023-08-17T01:53:48;15.90;;;9.50;;
76807;SDS011;65758;45.458;11.062;2023-08-17T01:56:15;9.10;;;8.20;;
76807;SDS011;65758;45.458;11.062;2023-08-17T01:58:43;10.00;;;9.00;;
76807;SDS011;65758;45.458;11.062;2023-08-17T02:01:10;9.90;;;8.80;;
76807;SDS011;65758;45.458;11.062;2023-08-17T02:03:37;10.40;;;9.10;;
76807;SDS011;65758;45.458;11.062;2023-08-17T02:06:04;12.50;;;9.00;;
76807;SDS011;65758;45.458;11.062;2023-08-17T02:08:32;14.10;;;9.70;;
76807;SDS011;65758;45.458;11.062;2023-08-17T02:11:00;10.90;;;9.30;;
76807;SDS011;65758;45.458;11.062;2023-08-17T02:13:27;10.60;;;9.60;;
76807;SDS011;65758;45.458;11.062;2023-08-17T02:16:01;11.60;;;9.00;;
76807;SDS011;65758;45.458;11.062;2023-08-17T02:18:28;14.00;;;9.00;;
76807;SDS011;65758;45.458;11.062;2023-08-17T02:20:58;12.10;;;9.60;;
76807;SDS011;65758;45.458;11.062;2023-08-17T02:23:24;10.60;;;9.50;;
76807;SDS011;65758;45.458;11.062;2023-08-17T02:25:51;11.80;;;9.40;;
76807;SDS011;65758;45.458;11.062;2023-08-17T02:28:20;11.50;;;9.70;;
76807;SDS011;65758;45.458;11.062;2023-08-17T02:30:47;10.10;;;9.10;;
76807;SDS011;65758;45.458;11.062;2023-08-17T02:33:15;13.90;;;10.10;;
76807;SDS011;65758;45.458;11.062;2023-08-17T02:35:42;11.90;;;9.50;;
76807;SDS011;65758;45.458;11.062;2023-08-17T02:38:09;11.60;;;10.20;;
76807;SDS011;65758;45.458;11.062;2023-08-17T02:40:36;10.50;;;9.50;;
76807;SDS011;65758;45.458;11.062;2023-08-17T02:43:02;12.10;;;8.90;;
76807;SDS011;65758;45.458;11.062;2023-08-17T02:45:29;12.80;;;9.30;;
76807;SDS011;65758;45.458;11.062;2023-08-17T02:47:56;10.10;;;9.00;;
76807;SDS011;65758;45.458;11.062;2023-08-17T02:50:23;10.30;;;8.90;;
76807;SDS011;65758;45.458;11.062;2023-08-17T02:52:50;10.60;;;9.70;;
76807;SDS011;65758;45.458;11.062;2023-08-17T02:55:17;10.50;;;9.40;;
76807;SDS011;65758;45.458;11.062;2023-08-17T02:57:43;10.50;;;9.70;;
76807;SDS011;65758;45.458;11.062;2023-08-17T03:00:10;10.70;;;9.50;;
76807;SDS011;65758;45.458;11.062;2023-08-17T03:02:38;10.30;;;9.20;;
76807;SDS011;65758;45.458;11.062;2023-08-17T03:05:05;10.50;;;9.50;;
76807;SDS011;65758;45.458;11.062;2023-08-17T03:07:32;10.50;;;9.40;;
76807;SDS011;65758;45.458;11.062;2023-08-17T03:09:58;9.60;;;8.70;;
76807;SDS011;65758;45.458;11.062;2023-08-17T03:12:25;11.30;;;10.10;;
76807;SDS011;65758;45.458;11.062;2023-08-17T03:14:52;11.00;;;9.70;;
76807;SDS011;65758;45.458;11.062;2023-08-17T03:17:19;13.20;;;9.60;;
76807;SDS011;65758;45.458;11.062;2023-08-17T03:19:46;14.60;;;10.00;;
76807;SDS011;65758;45.458;11.062;2023-08-17T03:22:14;12.10;;;10.70;;
76807;SDS011;65758;45.458;11.062;2023-08-17T03:24:41;10.50;;;9.50;;
76807;SDS011;65758;45.458;11.062;2023-08-17T03:27:08;11.60;;;10.30;;
76807;SDS011;65758;45.458;11.062;2023-08-17T03:29:35;11.70;;;10.50;;
76807;SDS011;65758;45.458;11.062;2023-08-17T03:32:02;10.90;;;9.80;;
76807;SDS011;65758;45.458;11.062;2023-08-17T03:34:29;10.60;;;9.80;;
76807;SDS011;65758;45.458;11.062;2023-08-17T03:36:56;12.00;;;9.90;;
76807;SDS011;65758;45.458;11.062;2023-08-17T03:39:24;12.50;;;9.60;;
76807;SDS011;65758;45.458;11.062;2023-08-17T03:41:51;11.10;;;10.00;;
76807;SDS011;65758;45.458;11.062;2023-08-17T03:44:18;13.00;;;10.50;;
76807;SDS011;65758;45.458;11.062;2023-08-17T03:46:44;11.20;;;10.20;;
76807;SDS011;65758;45.458;11.062;2023-08-17T03:49:12;11.90;;;10.70;;
76807;SDS011;65758;45.458;11.062;2023-08-17T03:51:39;13.40;;;9.70;;
76807;SDS011;65758;45.458;11.062;2023-08-17T03:54:05;10.00;;;9.00;;
76807;SDS011;65758;45.458;11.062;2023-08-17T03:56:32;10.00;;;9.10;;
76807;SDS011;65758;45.458;11.062;2023-08-17T03:58:59;12.80;;;9.30;;
76807;SDS011;65758;45.458;11.062;2023-08-17T04:01:26;10.20;;;9.20;;
76807;SDS011;65758;45.458;11.062;2023-08-17T04:03:54;10.20;;;9.20;;
76807;SDS011;65758;45.458;11.062;2023-08-17T04:06:21;10.70;;;9.70;;
76807;SDS011;65758;45.458;11.062;2023-08-17T04:08:48;10.60;;;9.60;;
76807;SDS011;65758;45.458;11.062;2023-08-17T04:11:15;10.40;;;9.30;;
76807;SDS011;65758;45.458;11.062;2023-08-17T04:13:41;10.70;;;9.80;;
76807;SDS011;65758;45.458;11.062;2023-08-17T04:16:08;13.10;;;10.30;;
76807;SDS011;65758;45.458;11.062;2023-08-17T04:18:35;11.20;;;9.80;;
76807;SDS011;65758;45.458;11.062;2023-08-17T04:21:02;11.00;;;10.00;;
76807;SDS011;65758;45.458;11.062;2023-08-17T04:23:29;10.90;;;9.90;;
76807;SDS011;65758;45.458;11.062;2023-08-17T04:25:56;14.80;;;10.20;;
76807;SDS011;65758;45.458;11.062;2023-08-17T04:28:23;12.70;;;9.70;;
76807;SDS011;65758;45.458;11.062;2023-08-17T04:30:51;12.50;;;10.40;;
76807;SDS011;65758;45.458;11.062;2023-08-17T04:33:18;11.70;;;10.50;;
76807;SDS011;65758;45.458;11.062;2023-08-17T04:35:48;11.40;;;9.90;;
76807;SDS011;65758;45.458;11.062;2023-08-17T04:38:15;11.10;;;10.10;;
76807;SDS011;65758;45.458;11.062;2023-08-17T04:40:42;11.60;;;10.50;;
76807;SDS011;65758;45.458;11.062;2023-08-17T04:43:10;11.20;;;10.00;;
76807;SDS011;65758;45.458;11.062;2023-08-17T04:45:37;11.50;;;10.20;;
76807;SDS011;65758;45.458;11.062;2023-08-17T04:48:05;13.10;;;11.00;;
76807;SDS011;65758;45.458;11.062;2023-08-17T04:50:32;10.40;;;9.40;;
76807;SDS011;65758;45.458;11.062;2023-08-17T04:53:00;11.10;;;10.00;;
76807;SDS011;65758;45.458;11.062;2023-08-17T04:55:27;12.90;;;10.60;;
76807;SDS011;65758;45.458;11.062;2023-08-17T04:57:54;11.40;;;10.00;;
76807;SDS011;65758;45.458;11.062;2023-08-17T05:00:22;11.60;;;10.30;;
76807;SDS011;65758;45.458;11.062;2023-08-17T05:02:55;11.70;;;9.90;;
76807;SDS011;65758;45.458;11.062;2023-08-17T05:05:23;12.10;;;10.50;;
76807;SDS011;65758;45.458;11.062;2023-08-17T05:07:51;17.30;;;11.10;;
76807;SDS011;65758;45.458;11.062;2023-08-17T05:10:19;16.40;;;11.30;;
76807;SDS011;65758;45.458;11.062;2023-08-17T05:12:46;16.20;;;10.20;;
76807;SDS011;65758;45.458;11.062;2023-08-17T05:15:13;12.20;;;10.60;;
76807;SDS011;65758;45.458;11.062;2023-08-17T05:17:40;12.40;;;10.40;;
76807;SDS011;65758;45.458;11.062;2023-08-17T05:20:08;11.10;;;10.00;;
76807;SDS011;65758;45.458;11.062;2023-08-17T05:22:35;13.30;;;10.90;;
76807;SDS011;65758;45.458;11.062;2023-08-17T05:25:02;13.00;;;11.30;;
76807;SDS011;65758;45.458;11.062;2023-08-17T05:27:30;14.80;;;10.10;;
76807;SDS011;65758;45.458;11.062;2023-08-17T05:29:56;12.10;;;10.90;;
76807;SDS011;65758;45.458;11.062;2023-08-17T05:32:23;12.20;;;10.60;;
76807;SDS011;65758;45.458;11.062;2023-08-17T05:34:50;13.30;;;10.80;;
76807;SDS011;65758;45.458;11.062;2023-08-17T05:37:17;12.30;;;10.20;;
76807;SDS011;65758;45.458;11.062;2023-08-17T05:39:44;14.20;;;11.20;;
76807;SDS011;65758;45.458;11.062;2023-08-17T05:42:11;15.00;;;10.70;;
76807;SDS011;65758;45.458;11.062;2023-08-17T05:44:38;13.40;;;10.20;;
76807;SDS011;65758;45.458;11.062;2023-08-17T05:47:04;12.60;;;10.60;;
76807;SDS011;65758;45.458;11.062;2023-08-17T05:49:31;10.60;;;9.60;;
76807;SDS011;65758;45.458;11.062;2023-08-17T05:51:58;11.40;;;10.40;;
76807;SDS011;65758;45.458;11.062;2023-08-17T05:54:25;11.50;;;10.40;;
76807;SDS011;65758;45.458;11.062;2023-08-17T05:56:51;11.10;;;10.00;;
76807;SDS011;65758;45.458;11.062;2023-08-17T05:59:18;11.00;;;9.80;;
76807;SDS011;65758;45.458;11.062;2023-08-17T06:01:45;11.00;;;9.90;;
76807;SDS011;65758;45.458;11.062;2023-08-17T06:04:12;10.80;;;9.80;;
76807;SDS011;65758;45.458;11.062;2023-08-17T06:06:38;11.20;;;10.10;;
76807;SDS011;65758;45.458;11.062;2023-08-17T06:09:05;11.00;;;9.90;;
76807;SDS011;65758;45.458;11.062;2023-08-17T06:11:34;12.10;;;10.50;;
76807;SDS011;65758;45.458;11.062;2023-08-17T06:14:01;12.60;;;10.40;;
76807;SDS011;65758;45.458;11.062;2023-08-17T06:16:27;14.30;;;10.40;;
76807;SDS011;65758;45.458;11.062;2023-08-17T06:18:54;11.50;;;10.40;;
76807;SDS011;65758;45.458;11.062;2023-08-17T06:21:21;10.60;;;9.70;;
76807;SDS011;65758;45.458;11.062;2023-08-17T06:23:48;10.90;;;9.90;;
76807;SDS011;65758;45.458;11.062;2023-08-17T06:26:15;12.80;;;10.40;;
76807;SDS011;65758;45.458;11.062;2023-08-17T06:28:41;11.50;;;10.50;;
76807;SDS011;65758;45.458;11.062;2023-08-17T06:31:08;11.40;;;10.30;;
76807;SDS011;65758;45.458;11.062;2023-08-17T06:33:35;11.10;;;10.10;;
76807;SDS011;65758;45.458;11.062;2023-08-17T06:36:02;10.50;;;9.50;;
76807;SDS011;65758;45.458;11.062;2023-08-17T06:38:29;11.20;;;10.00;;
76807;SDS011;65758;45.458;11.062;2023-08-17T06:40:55;11.40;;;10.30;;
76807;SDS011;65758;45.458;11.062;2023-08-17T06:43:22;11.10;;;10.00;;
76807;SDS011;65758;45.458;11.062;2023-08-17T06:45:49;11.00;;;9.90;;
76807;SDS011;65758;45.458;11.062;2023-08-17T06:48:16;11.60;;;10.30;;
76807;SDS011;65758;45.458;11.062;2023-08-17T06:50:43;10.50;;;9.30;;
76807;SDS011;65758;45.458;11.062;2023-08-17T06:53:09;9.90;;;8.90;;
76807;SDS011;65758;45.458;11.062;2023-08-17T06:55:36;10.20;;;9.30;;
76807;SDS011;65758;45.458;11.062;2023-08-17T06:58:03;10.20;;;9.20;;
76807;SDS011;65758;45.458;11.062;2023-08-17T07:00:30;9.50;;;8.40;;
76807;SDS011;65758;45.458;11.062;2023-08-17T07:02:57;9.20;;;8.40;;
76807;SDS011;65758;45.458;11.062;2023-08-17T07:05:27;10.70;;;9.40;;
76807;SDS011;65758;45.458;11.062;2023-08-17T07:07:54;10.20;;;9.10;;
76807;SDS011;65758;45.458;11.062;2023-08-17T07:10:21;10.00;;;9.00;;
76807;SDS011;65758;45.458;11.062;2023-08-17T07:12:48;9.40;;;8.50;;
76807;SDS011;65758;45.458;11.062;2023-08-17T07:15:15;11.50;;;8.70;;
76807;SDS011;65758;45.458;11.062;2023-08-17T07:17:42;9.40;;;8.30;;
76807;SDS011;65758;45.458;11.062;2023-08-17T07:20:09;9.80;;;8.80;;
76807;SDS011;65758;45.458;11.062;2023-08-17T07:22:42;9.90;;;8.90;;
76807;SDS011;65758;45.458;11.062;2023-08-17T07:25:09;9.80;;;8.90;;
76807;SDS011;65758;45.458;11.062;2023-08-17T07:27:36;10.60;;;9.50;;
76807;SDS011;65758;45.458;11.062;2023-08-17T07:30:03;11.20;;;10.10;;
76807;SDS011;65758;45.458;11.062;2023-08-17T07:32:30;10.70;;;9.60;;
76807;SDS011;65758;45.458;11.062;2023-08-17T07:34:57;10.90;;;9.80;;
76807;SDS011;65758;45.458;11.062;2023-08-17T07:37:24;10.90;;;9.90;;
76807;SDS011;65758;45.458;11.062;2023-08-17T07:39:58;14.70;;;9.00;;
76807;SDS011;65758;45.458;11.062;2023-08-17T07:42:26;10.60;;;9.60;;
76807;SDS011;65758;45.458;11.062;2023-08-17T07:44:53;9.50;;;8.60;;
76807;SDS011;65758;45.458;11.062;2023-08-17T07:47:20;12.20;;;9.30;;
76807;SDS011;65758;45.458;11.062;2023-08-17T07:49:47;11.30;;;10.10;;
76807;SDS011;65758;45.458;11.062;2023-08-17T07:52:15;11.90;;;10.70;;
76807;SDS011;65758;45.458;11.062;2023-08-17T07:54:42;10.70;;;9.70;;
76807;SDS011;65758;45.458;11.062;2023-08-17T07:57:09;10.20;;;9.30;;
76807;SDS011;65758;45.458;11.062;2023-08-17T07:59:36;10.00;;;9.10;;
76807;SDS011;65758;45.458;11.062;2023-08-17T08:02:03;10.60;;;9.50;;
76807;SDS011;65758;45.458;11.062;2023-08-17T08:04:30;10.20;;;9.00;;
76807;SDS011;65758;45.458;11.062;2023-08-17T08:06:56;12.50;;;9.70;;
76807;SDS011;65758;45.458;11.062;2023-08-17T08:09:23;11.20;;;10.20;;
76807;SDS011;65758;45.458;11.062;2023-08-17T08:11:50;11.40;;;9.80;;
76807;SDS011;65758;45.458;11.062;2023-08-17T08:14:17;13.30;;;10.70;;
76807;SDS011;65758;45.458;11.062;2023-08-17T08:16:44;10.70;;;9.70;;
76807;SDS011;65758;45.458;11.062;2023-08-17T08:19:10;10.00;;;8.60;;
76807;SDS011;65758;45.458;11.062;2023-08-17T08:21:37;10.20;;;9.20;;
76807;SDS011;65758;45.458;11.062;2023-08-17T08:24:04;9.50;;;8.60;;
76807;SDS011;65758;45.458;11.062;2023-08-17T08:26:39;11.20;;;8.50;;
76807;SDS011;65758;45.458;11.062;2023-08-17T08:29:06;10.80;;;9.60;;
76807;SDS011;65758;45.458;11.062;2023-08-17T08:31:33;9.40;;;8.00;;
76807;SDS011;65758;45.458;11.062;2023-08-17T08:33:59;9.30;;;8.20;;
76807;SDS011;65758;45.458;11.062;2023-08-17T08:36:26;9.20;;;8.20;;
76807;SDS011;65758;45.458;11.062;2023-08-17T08:38:53;9.10;;;8.20;;
76807;SDS011;65758;45.458;11.062;2023-08-17T08:41:20;11.50;;;8.40;;
76807;SDS011;65758;45.458;11.062;2023-08-17T08:43:48;9.30;;;8.40;;
76807;SDS011;65758;45.458;11.062;2023-08-17T08:46:16;9.80;;;8.40;;
76807;SDS011;65758;45.458;11.062;2023-08-17T08:48:44;10.30;;;9.10;;
76807;SDS011;65758;45.458;11.062;2023-08-17T08:51:15;9.00;;;8.20;;
76807;SDS011;65758;45.458;11.062;2023-08-17T08:53:46;11.90;;;9.80;;
76807;SDS011;65758;45.458;11.062;2023-08-17T08:56:18;9.60;;;8.60;;
76807;SDS011;65758;45.458;11.062;2023-08-17T08:58:48;10.40;;;9.10;;
76807;SDS011;65758;45.458;11.062;2023-08-17T09:01:20;10.10;;;9.00;;
76807;SDS011;65758;45.458;11.062;2023-08-17T09:03:49;10.90;;;8.30;;
76807;SDS011;65758;45.458;11.062;2023-08-17T09:06:16;11.30;;;8.90;;
76807;SDS011;65758;45.458;11.062;2023-08-17T09:08:46;13.20;;;9.10;;
76807;SDS011;65758;45.458;11.062;2023-08-17T09:11:14;10.30;;;8.80;;
76807;SDS011;65758;45.458;11.062;2023-08-17T09:13:41;9.90;;;8.70;;
76807;SDS011;65758;45.458;11.062;2023-08-17T09:16:07;9.60;;;8.30;;
76807;SDS011;65758;45.458;11.062;2023-08-17T09:18:34;10.30;;;9.30;;
76807;SDS011;65758;45.458;11.062;2023-08-17T09:21:04;8.90;;;7.80;;
76807;SDS011;65758;45.458;11.062;2023-08-17T09:23:31;9.60;;;8.80;;
76807;SDS011;65758;45.458;11.062;2023-08-17T09:26:05;9.20;;;8.30;;
76807;SDS011;65758;45.458;11.062;2023-08-17T09:28:35;8.10;;;7.40;;
76807;SDS011;65758;45.458;11.062;2023-08-17T09:31:05;8.20;;;7.40;;
76807;SDS011;65758;45.458;11.062;2023-08-17T09:33:32;9.60;;;8.70;;
76807;SDS011;65758;45.458;11.062;2023-08-17T09:36:00;9.50;;;7.40;;
76807;SDS011;65758;45.458;11.062;2023-08-17T09:38:27;9.40;;;8.00;;
76807;SDS011;65758;45.458;11.062;2023-08-17T09:40:55;11.50;;;8.00;;
76807;SDS011;65758;45.458;11.062;2023-08-17T09:43:23;9.20;;;8.10;;
76807;SDS011;65758;45.458;11.062;2023-08-17T09:45:54;8.40;;;7.50;;
76807;SDS011;65758;45.458;11.062;2023-08-17T09:48:21;9.50;;;7.40;;
76807;SDS011;65758;45.458;11.062;2023-08-17T09:50:48;10.50;;;8.30;;
76807;SDS011;65758;45.458;11.062;2023-08-17T09:53:16;8.10;;;7.40;;
76807;SDS011;65758;45.458;11.062;2023-08-17T09:55:44;9.40;;;8.50;;
76807;SDS011;65758;45.458;11.062;2023-08-17T09:58:12;8.40;;;7.60;;
76807;SDS011;65758;45.458;11.062;2023-08-17T10:00:45;8.90;;;7.20;;
76807;SDS011;65758;45.458;11.062;2023-08-17T10:03:16;8.40;;;7.60;;
76807;SDS011;65758;45.458;11.062;2023-08-17T10:05:56;9.20;;;7.20;;
76807;SDS011;65758;45.458;11.062;2023-08-17T10:08:28;9.30;;;8.40;;
76807;SDS011;65758;45.458;11.062;2023-08-17T10:10:57;9.30;;;8.40;;
76807;SDS011;65758;45.458;11.062;2023-08-17T10:13:39;8.90;;;8.00;;
76807;SDS011;65758;45.458;11.062;2023-08-17T10:18:43;8.50;;;7.60;;
76807;SDS011;65758;45.458;11.062;2023-08-17T10:21:18;8.30;;;7.50;;
76807;SDS011;65758;45.458;11.062;2023-08-17T10:23:49;8.70;;;8.00;;
76807;SDS011;65758;45.458;11.062;2023-08-17T10:26:20;8.70;;;7.70;;
76807;SDS011;65758;45.458;11.062;2023-08-17T10:28:49;9.70;;;7.90;;
76807;SDS011;65758;45.458;11.062;2023-08-17T10:31:18;9.30;;;7.80;;
76807;SDS011;65758;45.458;11.062;2023-08-17T10:33:46;10.80;;;7.70;;
76807;SDS011;65758;45.458;11.062;2023-08-17T10:36:14;8.30;;;7.50;;
76807;SDS011;65758;45.458;11.062;2023-08-17T10:38:42;9.20;;;8.20;;
76807;SDS011;65758;45.458;11.062;2023-08-17T10:41:10;9.00;;;8.10;;
76807;SDS011;65758;45.458;11.062;2023-08-17T10:43:52;8.40;;;7.50;;
76807;SDS011;65758;45.458;11.062;2023-08-17T10:46:20;8.50;;;7.70;;
76807;SDS011;65758;45.458;11.062;2023-08-17T10:48:47;8.70;;;7.90;;
76807;SDS011;65758;45.458;11.062;2023-08-17T10:51:14;10.00;;;8.00;;
76807;SDS011;65758;45.458;11.062;2023-08-17T10:53:43;9.10;;;8.10;;
76807;SDS011;65758;45.458;11.062;2023-08-17T10:56:11;9.00;;;7.90;;
76807;SDS011;65758;45.458;11.062;2023-08-17T10:58:42;9.10;;;8.30;;
76807;SDS011;65758;45.458;11.062;2023-08-17T11:01:09;8.40;;;7.60;;
76807;SDS011;65758;45.458;11.062;2023-08-17T11:03:37;9.90;;;9.00;;
76807;SDS011;65758;45.458;11.062;2023-08-17T11:06:16;9.30;;;8.50;;
76807;SDS011;65758;45.458;11.062;2023-08-17T11:08:52;8.40;;;7.60;;
76807;SDS011;65758;45.458;11.062;2023-08-17T11:11:21;8.30;;;7.50;;
76807;SDS011;65758;45.458;11.062;2023-08-17T11:13:49;8.70;;;8.00;;
76807;SDS011;65758;45.458;11.062;2023-08-17T11:16:22;9.50;;;7.80;;
76807;SDS011;65758;45.458;11.062;2023-08-17T11:18:50;9.30;;;8.40;;
76807;SDS011;65758;45.458;11.062;2023-08-17T11:21:18;9.80;;;8.20;;
76807;SDS011;65758;45.458;11.062;2023-08-17T11:23:46;8.30;;;7.40;;
76807;SDS011;65758;45.458;11.062;2023-08-17T11:26:16;9.10;;;8.10;;
76807;SDS011;65758;45.458;11.062;2023-08-17T11:28:44;10.50;;;7.80;;
76807;SDS011;65758;45.458;11.062;2023-08-17T11:31:12;8.50;;;7.70;;
76807;SDS011;65758;45.458;11.062;2023-08-17T11:33:42;11.40;;;8.30;;
76807;SDS011;65758;45.458;11.062;2023-08-17T11:36:10;8.60;;;7.90;;
76807;SDS011;65758;45.458;11.062;2023-08-17T11:38:40;9.20;;;8.20;;
76807;SDS011;65758;45.458;11.062;2023-08-17T11:41:09;8.80;;;7.70;;
76807;SDS011;65758;45.458;11.062;2023-08-17T11:43:44;9.10;;;8.20;;
76807;SDS011;65758;45.458;11.062;2023-08-17T11:46:12;10.90;;;8.50;;
76807;SDS011;65758;45.458;11.062;2023-08-17T11:48:39;9.20;;;8.30;;
76807;SDS011;65758;45.458;11.062;2023-08-17T11:51:06;9.40;;;8.40;;
76807;SDS011;65758;45.458;11.062;2023-08-17T11:53:36;8.90;;;8.00;;
76807;SDS011;65758;45.458;11.062;2023-08-17T11:56:06;8.70;;;7.50;;
76807;SDS011;65758;45.458;11.062;2023-08-17T11:58:43;8.60;;;7.60;;
76807;SDS011;65758;45.458;11.062;2023-08-17T12:01:11;8.90;;;8.10;;
76807;SDS011;65758;45.458;11.062;2023-08-17T12:03:40;10.90;;;7.80;;
76807;SDS011;65758;45.458;11.062;2023-08-17T12:06:09;9.70;;;7.60;;
76807;SDS011;65758;45.458;11.062;2023-08-17T12:08:44;8.70;;;7.80;;
76807;SDS011;65758;45.458;11.062;2023-08-17T12:11:18;8.50;;;7.10;;
76807;SDS011;65758;45.458;11.062;2023-08-17T12:13:52;10.90;;;7.90;;
76807;SDS011;65758;45.458;11.062;2023-08-17T12:16:20;9.40;;;7.80;;
76807;SDS011;65758;45.458;11.062;2023-08-17T12:18:48;7.80;;;7.00;;
76807;SDS011;65758;45.458;11.062;2023-08-17T12:21:16;8.60;;;7.80;;
76807;SDS011;65758;45.458;11.062;2023-08-17T12:23:43;11.70;;;8.80;;
76807;SDS011;65758;45.458;11.062;2023-08-17T12:26:09;8.70;;;7.70;;
76807;SDS011;65758;45.458;11.062;2023-08-17T12:28:39;11.20;;;8.60;;
76807;SDS011;65758;45.458;11.062;2023-08-17T12:31:06;8.00;;;7.40;;
76807;SDS011;65758;45.458;11.062;2023-08-17T12:33:33;8.10;;;7.50;;
76807;SDS011;65758;45.458;11.062;2023-08-17T12:36:00;9.00;;;7.90;;
76807;SDS011;65758;45.458;11.062;2023-08-17T12:38:26;9.00;;;7.90;;
76807;SDS011;65758;45.458;11.062;2023-08-17T12:40:53;8.70;;;8.00;;
76807;SDS011;65758;45.458;11.062;2023-08-17T12:43:20;8.10;;;7.30;;
76807;SDS011;65758;45.458;11.062;2023-08-17T12:45:47;7.70;;;7.00;;
76807;SDS011;65758;45.458;11.062;2023-08-17T12:48:14;9.00;;;8.10;;
76807;SDS011;65758;45.458;11.062;2023-08-17T12:50:41;8.90;;;7.20;;
76807;SDS011;65758;45.458;11.062;2023-08-17T12:53:10;8.70;;;7.80;;
76807;SDS011;65758;45.458;11.062;2023-08-17T12:55:37;12.90;;;7.70;;
76807;SDS011;65758;45.458;11.062;2023-08-17T12:58:04;9.40;;;8.40;;
76807;SDS011;65758;45.458;11.062;2023-08-17T13:00:31;8.90;;;8.00;;
76807;SDS011;65758;45.458;11.062;2023-08-17T13:02:58;8.00;;;7.20;;
76807;SDS011;65758;45.458;11.062;2023-08-17T13:05:25;10.20;;;9.30;;
76807;SDS011;65758;45.458;11.062;2023-08-17T13:07:52;8.50;;;7.80;;
76807;SDS011;65758;45.458;11.062;2023-08-17T13:10:19;9.10;;;8.20;;
76807;SDS011;65758;45.458;11.062;2023-08-17T13:12:45;9.10;;;8.20;;
76807;SDS011;65758;45.458;11.062;2023-08-17T13:15:14;8.70;;;7.90;;
76807;SDS011;65758;45.458;11.062;2023-08-17T13:17:41;7.70;;;6.80;;
76807;SDS011;65758;45.458;11.062;2023-08-17T13:20:08;8.20;;;7.40;;
76807;SDS011;65758;45.458;11.062;2023-08-17T13:22:36;7.90;;;7.10;;
76807;SDS011;65758;45.458;11.062;2023-08-17T13:25:03;10.40;;;7.30;;
76807;SDS011;65758;45.458;11.062;2023-08-17T13:27:30;7.70;;;6.70;;
76807;SDS011;65758;45.458;11.062;2023-08-17T13:29:57;9.10;;;6.90;;
76807;SDS011;65758;45.458;11.062;2023-08-17T13:32:25;9.00;;;7.50;;
76807;SDS011;65758;45.458;11.062;2023-08-17T13:34:53;9.20;;;8.00;;
76807;SDS011;65758;45.458;11.062;2023-08-17T13:37:21;8.00;;;7.10;;
76807;SDS011;65758;45.458;11.062;2023-08-17T13:39:48;7.90;;;7.20;;
76807;SDS011;65758;45.458;11.062;2023-08-17T13:42:15;8.10;;;7.00;;
76807;SDS011;65758;45.458;11.062;2023-08-17T13:44:43;7.40;;;6.80;;
76807;SDS011;65758;45.458;11.062;2023-08-17T13:47:10;7.70;;;7.00;;
76807;SDS011;65758;45.458;11.062;2023-08-17T13:49:36;7.70;;;6.90;;
76807;SDS011;65758;45.458;11.062;2023-08-17T13:52:03;12.50;;;7.60;;
76807;SDS011;65758;45.458;11.062;2023-08-17T13:54:30;8.20;;;7.50;;
76807;SDS011;65758;45.458;11.062;2023-08-17T13:56:57;8.00;;;7.20;;
76807;SDS011;65758;45.458;11.062;2023-08-17T13:59:24;8.40;;;7.60;;
76807;SDS011;65758;45.458;11.062;2023-08-17T14:01:51;7.40;;;6.70;;
76807;SDS011;65758;45.458;11.062;2023-08-17T14:04:17;7.30;;;6.50;;
76807;SDS011;65758;45.458;11.062;2023-08-17T14:06:45;7.70;;;7.00;;
76807;SDS011;65758;45.458;11.062;2023-08-17T14:09:11;7.40;;;6.70;;
76807;SDS011;65758;45.458;11.062;2023-08-17T14:11:38;7.10;;;6.60;;
76807;SDS011;65758;45.458;11.062;2023-08-17T14:14:05;7.50;;;6.80;;
76807;SDS011;65758;45.458;11.062;2023-08-17T14:16:35;8.00;;;6.50;;
76807;SDS011;65758;45.458;11.062;2023-08-17T14:19:22;7.60;;;6.30;;
76807;SDS011;65758;45.458;11.062;2023-08-17T14:21:49;7.80;;;6.80;;
76807;SDS011;65758;45.458;11.062;2023-08-17T14:24:16;8.00;;;7.20;;
76807;SDS011;65758;45.458;11.062;2023-08-17T14:26:43;7.40;;;6.70;;
76807;SDS011;65758;45.458;11.062;2023-08-17T14:29:09;8.70;;;7.10;;
76807;SDS011;65758;45.458;11.062;2023-08-17T14:31:36;7.30;;;6.70;;